sensor_id;sensor_type;location;lat;lon;timestamp;pressure;altitude;pressure_sealevel;temperature;humidity
74268;BME280;62638;51.362;12.472;2022-08-03T00:01:19;100353.25;;;15.95;88.25
74268;BME280;62638;51.362;12.472;2022-08-03T00:03:44;100357.91;;;15.78;88.14
74268;BME280;62638;51.362;12.472;2022-08-03T00:06:09;100352.72;;;15.60;89.74
74268;BME280;62638;51.362;12.472;2022-08-03T00:08:35;100353.75;;;15.51;89.95
74268;BME280;62638;51.362;12.472;2022-08-03T00:11:00;100355.75;;;15.49;90.47
74268;BME280;62638;51.362;12.472;2022-08-03T00:13:25;100353.44;;;15.38;89.95
74268;BME280;62638;51.362;12.472;2022-08-03T00:15:51;100349.22;;;15.27;90.09
74268;BME280;62638;51.362;12.472;2022-08-03T00:18:16;100350.91;;;15.28;90.64
74268;BME280;62638;51.362;12.472;2022-08-03T00:20:42;100346.88;;;15.24;90.27
74268;BME280;62638;51.362;12.472;2022-08-03T00:23:07;100341.50;;;15.16;90.54
74268;BME280;62638;51.362;12.472;2022-08-03T00:25:34;100338.78;;;15.16;90.57
74268;BME280;62638;51.362;12.472;2022-08-03T00:27:59;100341.16;;;15.19;90.78
74268;BME280;62638;51.362;12.472;2022-08-03T00:30:25;100343.81;;;15.27;91.55
74268;BME280;62638;51.362;12.472;2022-08-03T00:32:50;100346.53;;;15.27;91.85
74268;BME280;62638;51.362;12.472;2022-08-03T00:35:16;100341.16;;;15.19;91.43
74268;BME280;62638;51.362;12.472;2022-08-03T00:37:41;100337.63;;;15.27;91.15
74268;BME280;62638;51.362;12.472;2022-08-03T00:40:07;100341.09;;;15.43;90.36
74268;BME280;62638;51.362;12.472;2022-08-03T00:42:32;100335.88;;;15.50;90.58
74268;BME280;62638;51.362;12.472;2022-08-03T00:44:58;100329.59;;;15.58;89.77
74268;BME280;62638;51.362;12.472;2022-08-03T00:47:23;100335.00;;;15.58;90.16
74268;BME280;62638;51.362;12.472;2022-08-03T00:49:48;100335.69;;;15.60;90.03
74268;BME280;62638;51.362;12.472;2022-08-03T00:52:14;100323.34;;;15.49;90.21
74268;BME280;62638;51.362;12.472;2022-08-03T00:54:40;100337.22;;;15.38;90.63
74268;BME280;62638;51.362;12.472;2022-08-03T00:57:06;100337.91;;;15.40;91.24
74268;BME280;62638;51.362;12.472;2022-08-03T00:59:32;100337.56;;;15.43;91.74
74268;BME280;62638;51.362;12.472;2022-08-03T01:01:57;100336.72;;;15.51;90.97
74268;BME280;62638;51.362;12.472;2022-08-03T01:04:23;100335.56;;;15.53;90.83
74268;BME280;62638;51.362;12.472;2022-08-03T01:09:32;100333.53;;;15.39;90.58
74268;BME280;62638;51.362;12.472;2022-08-03T01:12:17;100327.00;;;15.17;91.21
74268;BME280;62638;51.362;12.472;2022-08-03T01:15:04;100323.28;;;15.10;91.63
74268;BME280;62638;51.362;12.472;2022-08-03T01:17:40;100326.34;;;14.99;91.42
74268;BME280;62638;51.362;12.472;2022-08-03T01:20:12;100325.34;;;14.92;91.74
74268;BME280;62638;51.362;12.472;2022-08-03T01:22:59;100326.72;;;14.88;92.70
74268;BME280;62638;51.362;12.472;2022-08-03T01:31:25;100318.28;;;14.83;92.62
74268;BME280;62638;51.362;12.472;2022-08-03T01:33:58;100313.88;;;14.90;92.00
74268;BME280;62638;51.362;12.472;2022-08-03T01:36:28;100317.78;;;14.79;92.26
74268;BME280;62638;51.362;12.472;2022-08-03T01:38:58;100315.59;;;14.75;92.55
74268;BME280;62638;51.362;12.472;2022-08-03T01:41:32;100314.25;;;14.79;92.62
74268;BME280;62638;51.362;12.472;2022-08-03T01:44:00;100317.78;;;14.79;92.67
74268;BME280;62638;51.362;12.472;2022-08-03T01:46:27;100312.53;;;14.94;92.91
74268;BME280;62638;51.362;12.472;2022-08-03T01:48:54;100316.38;;;15.08;92.06
74268;BME280;62638;51.362;12.472;2022-08-03T01:51:21;100317.06;;;15.02;91.49
74268;BME280;62638;51.362;12.472;2022-08-03T01:53:48;100317.41;;;14.98;91.57
74268;BME280;62638;51.362;12.472;2022-08-03T01:56:16;100317.94;;;14.78;91.61
74268;BME280;62638;51.362;12.472;2022-08-03T01:58:43;100321.66;;;14.69;91.83
74268;BME280;62638;51.362;12.472;2022-08-03T02:01:11;100321.16;;;14.65;92.36
74268;BME280;62638;51.362;12.472;2022-08-03T02:03:39;100318.94;;;14.61;92.76
74268;BME280;62638;51.362;12.472;2022-08-03T02:06:09;100317.28;;;14.84;92.05
74268;BME280;62638;51.362;12.472;2022-08-03T02:08:37;100312.91;;;14.75;92.58
74268;BME280;62638;51.362;12.472;2022-08-03T02:11:04;100319.44;;;14.64;92.54
74268;BME280;62638;51.362;12.472;2022-08-03T02:13:32;100318.59;;;14.56;92.17
74268;BME280;62638;51.362;12.472;2022-08-03T02:15:58;100315.25;;;14.62;92.35
74268;BME280;62638;51.362;12.472;2022-08-03T02:18:25;100314.56;;;14.60;92.80
74268;BME280;62638;51.362;12.472;2022-08-03T02:20:51;100318.09;;;14.68;93.09
74268;BME280;62638;51.362;12.472;2022-08-03T02:23:17;100320.31;;;14.57;93.10
74268;BME280;62638;51.362;12.472;2022-08-03T02:25:45;100317.94;;;14.53;94.00
74268;BME280;62638;51.362;12.472;2022-08-03T02:28:19;100313.56;;;14.36;93.38
74268;BME280;62638;51.362;12.472;2022-08-03T02:30:53;100311.13;;;14.33;93.73
74268;BME280;62638;51.362;12.472;2022-08-03T02:33:22;100309.03;;;14.53;93.45
74268;BME280;62638;51.362;12.472;2022-08-03T02:35:49;100313.06;;;14.57;92.84
74268;BME280;62638;51.362;12.472;2022-08-03T02:38:19;100313.22;;;14.56;92.58
74268;BME280;62638;51.362;12.472;2022-08-03T02:40:45;100317.25;;;14.51;92.97
74268;BME280;62638;51.362;12.472;2022-08-03T02:43:16;100314.56;;;14.60;92.69
74268;BME280;62638;51.362;12.472;2022-08-03T02:45:44;100301.59;;;14.63;92.55
74268;BME280;62638;51.362;12.472;2022-08-03T02:48:11;100310.19;;;14.59;92.69
74268;BME280;62638;51.362;12.472;2022-08-03T02:50:41;100312.22;;;14.73;92.73
74268;BME280;62638;51.362;12.472;2022-08-03T02:53:09;100304.81;;;14.67;92.91
74268;BME280;62638;51.362;12.472;2022-08-03T02:55:36;100315.75;;;14.65;92.39
74268;BME280;62638;51.362;12.472;2022-08-03T02:58:02;100306.31;;;14.61;92.28
74268;BME280;62638;51.362;12.472;2022-08-03T03:00:30;100306.13;;;14.54;92.16
74268;BME280;62638;51.362;12.472;2022-08-03T03:02:58;100305.13;;;14.39;92.54
74268;BME280;62638;51.362;12.472;2022-08-03T03:05:24;100306.97;;;14.39;93.39
74268;BME280;62638;51.362;12.472;2022-08-03T03:07:50;100309.19;;;14.51;93.18
74268;BME280;62638;51.362;12.472;2022-08-03T03:10:16;100306.66;;;14.58;92.90
74268;BME280;62638;51.362;12.472;2022-08-03T03:12:42;100307.81;;;14.56;92.97
74268;BME280;62638;51.362;12.472;2022-08-03T03:15:09;100311.38;;;14.48;93.10
74268;BME280;62638;51.362;12.472;2022-08-03T03:17:36;100304.78;;;14.42;92.88
74268;BME280;62638;51.362;12.472;2022-08-03T03:20:01;100309.03;;;14.53;93.27
74268;BME280;62638;51.362;12.472;2022-08-03T03:22:28;100316.75;;;14.48;93.18
74268;BME280;62638;51.362;12.472;2022-08-03T03:24:55;100307.44;;;14.34;92.92
74268;BME280;62638;51.362;12.472;2022-08-03T03:27:21;100307.31;;;14.36;93.34
74268;BME280;62638;51.362;12.472;2022-08-03T03:29:47;100310.28;;;14.33;93.46
74268;BME280;62638;51.362;12.472;2022-08-03T03:32:13;100314.81;;;14.24;93.74
74268;BME280;62638;51.362;12.472;2022-08-03T03:34:39;100314.16;;;14.14;92.95
74268;BME280;62638;51.362;12.472;2022-08-03T03:37:05;100312.63;;;14.12;93.10
74268;BME280;62638;51.362;12.472;2022-08-03T03:39:30;100306.38;;;14.11;93.20
74268;BME280;62638;51.362;12.472;2022-08-03T03:41:55;100310.78;;;14.20;93.35
74268;BME280;62638;51.362;12.472;2022-08-03T03:44:25;100311.81;;;14.27;93.05
74268;BME280;62638;51.362;12.472;2022-08-03T03:46:51;100314.06;;;14.40;93.32
74268;BME280;62638;51.362;12.472;2022-08-03T03:49:17;100315.56;;;14.50;93.01
74268;BME280;62638;51.362;12.472;2022-08-03T03:51:42;100317.75;;;14.55;93.20
74268;BME280;62638;51.362;12.472;2022-08-03T03:54:08;100304.47;;;14.53;93.06
74268;BME280;62638;51.362;12.472;2022-08-03T03:56:33;100320.47;;;14.47;93.13
74268;BME280;62638;51.362;12.472;2022-08-03T03:58:59;100313.06;;;14.49;93.29
74268;BME280;62638;51.362;12.472;2022-08-03T04:01:25;100315.25;;;14.53;93.47
74268;BME280;62638;51.362;12.472;2022-08-03T04:03:50;100320.97;;;14.50;93.01
74268;BME280;62638;51.362;12.472;2022-08-03T04:06:16;100307.97;;;14.54;93.25
74268;BME280;62638;51.362;12.472;2022-08-03T04:09:01;100316.91;;;14.54;93.10
74268;BME280;62638;51.362;12.472;2022-08-03T04:11:50;100310.19;;;14.75;92.83
74268;BME280;62638;51.362;12.472;2022-08-03T04:14:22;100314.25;;;14.79;92.49
74268;BME280;62638;51.362;12.472;2022-08-03T04:16:57;100314.22;;;14.95;91.89
74268;BME280;62638;51.362;12.472;2022-08-03T04:19:31;100316.38;;;15.08;91.62
74268;BME280;62638;51.362;12.472;2022-08-03T04:22:00;100318.59;;;15.04;91.86
74268;BME280;62638;51.362;12.472;2022-08-03T04:24:32;100317.25;;;15.00;92.22
74268;BME280;62638;51.362;12.472;2022-08-03T04:26:59;100319.94;;;15.00;92.00
74268;BME280;62638;51.362;12.472;2022-08-03T04:29:28;100324.84;;;15.05;91.83
74268;BME280;62638;51.362;12.472;2022-08-03T04:31:56;100331.72;;;15.15;91.56
74268;BME280;62638;51.362;12.472;2022-08-03T04:34:22;100333.19;;;15.34;91.43
74268;BME280;62638;51.362;12.472;2022-08-03T04:36:49;100327.94;;;15.49;91.17
74268;BME280;62638;51.362;12.472;2022-08-03T04:39:22;100336.84;;;15.65;90.48
74268;BME280;62638;51.362;12.472;2022-08-03T04:41:52;100345.38;;;15.85;90.49
74268;BME280;62638;51.362;12.472;2022-08-03T04:44:18;100336.69;;;15.98;89.56
74268;BME280;62638;51.362;12.472;2022-08-03T04:46:45;100345.56;;;16.14;89.27
74268;BME280;62638;51.362;12.472;2022-08-03T04:49:11;100335.47;;;16.85;87.30
74268;BME280;62638;51.362;12.472;2022-08-03T04:51:36;100337.22;;;17.44;84.23
74268;BME280;62638;51.362;12.472;2022-08-03T04:54:04;100338.75;;;17.76;82.28
74268;BME280;62638;51.362;12.472;2022-08-03T04:56:31;100339.75;;;18.04;81.51
74268;BME280;62638;51.362;12.472;2022-08-03T04:58:58;100346.25;;;18.25;80.51
74268;BME280;62638;51.362;12.472;2022-08-03T05:01:24;100344.88;;;18.50;79.49
74268;BME280;62638;51.362;12.472;2022-08-03T05:03:49;100341.06;;;18.87;77.42
74268;BME280;62638;51.362;12.472;2022-08-03T05:06:15;100344.69;;;19.22;76.50
74268;BME280;62638;51.362;12.472;2022-08-03T05:08:40;100350.84;;;19.58;75.63
74268;BME280;62638;51.362;12.472;2022-08-03T05:11:06;100356.00;;;19.87;75.32
74268;BME280;62638;51.362;12.472;2022-08-03T05:13:31;100354.69;;;20.18;72.27
74268;BME280;62638;51.362;12.472;2022-08-03T05:15:57;100357.91;;;20.34;72.65
74268;BME280;62638;51.362;12.472;2022-08-03T05:18:22;100352.72;;;20.59;70.38
74268;BME280;62638;51.362;12.472;2022-08-03T05:20:47;100343.78;;;20.78;69.71
74268;BME280;62638;51.362;12.472;2022-08-03T05:23:13;100347.53;;;20.97;67.91
74268;BME280;62638;51.362;12.472;2022-08-03T05:25:38;100351.97;;;20.92;67.11
74268;BME280;62638;51.362;12.472;2022-08-03T05:28:03;100347.75;;;21.02;65.46
74268;BME280;62638;51.362;12.472;2022-08-03T05:30:29;100350.25;;;20.97;63.89
74268;BME280;62638;51.362;12.472;2022-08-03T05:32:54;100350.28;;;21.04;64.43
74268;BME280;62638;51.362;12.472;2022-08-03T05:35:20;100340.03;;;21.12;62.97
74268;BME280;62638;51.362;12.472;2022-08-03T05:37:45;100345.06;;;21.22;63.65
74268;BME280;62638;51.362;12.472;2022-08-03T05:40:11;100352.78;;;21.45;62.84
74268;BME280;62638;51.362;12.472;2022-08-03T05:42:36;100344.81;;;21.56;61.40
74268;BME280;62638;51.362;12.472;2022-08-03T05:45:05;100347.03;;;21.86;61.68
74268;BME280;62638;51.362;12.472;2022-08-03T05:47:42;100349.69;;;22.12;59.25
74268;BME280;62638;51.362;12.472;2022-08-03T05:50:09;100349.66;;;22.18;58.60
74268;BME280;62638;51.362;12.472;2022-08-03T05:52:34;100345.16;;;22.37;58.51
74268;BME280;62638;51.362;12.472;2022-08-03T05:55:00;100339.78;;;22.24;57.99
74268;BME280;62638;51.362;12.472;2022-08-03T05:57:25;100345.44;;;22.23;57.39
74268;BME280;62638;51.362;12.472;2022-08-03T05:59:50;100340.16;;;22.34;57.31
74268;BME280;62638;51.362;12.472;2022-08-03T06:02:16;100346.53;;;22.53;57.27
74268;BME280;62638;51.362;12.472;2022-08-03T06:04:41;100351.91;;;22.35;57.79
74268;BME280;62638;51.362;12.472;2022-08-03T06:07:06;100350.81;;;22.42;56.84
74268;BME280;62638;51.362;12.472;2022-08-03T06:09:32;100349.72;;;22.50;56.67
74268;BME280;62638;51.362;12.472;2022-08-03T06:11:57;100343.66;;;22.41;58.09
74268;BME280;62638;51.362;12.472;2022-08-03T06:14:22;100351.34;;;22.57;56.33
74268;BME280;62638;51.362;12.472;2022-08-03T06:16:48;100351.56;;;22.56;56.07
74268;BME280;62638;51.362;12.472;2022-08-03T06:19:13;100347.56;;;22.58;55.47
74268;BME280;62638;51.362;12.472;2022-08-03T06:21:38;100349.75;;;22.81;55.08
74268;BME280;62638;51.362;12.472;2022-08-03T06:24:04;100350.53;;;22.88;55.85
74268;BME280;62638;51.362;12.472;2022-08-03T06:26:31;100351.63;;;23.12;53.99
74268;BME280;62638;51.362;12.472;2022-08-03T06:28:56;100354.34;;;23.37;54.22
74268;BME280;62638;51.362;12.472;2022-08-03T06:31:23;100353.56;;;23.55;53.63
74268;BME280;62638;51.362;12.472;2022-08-03T06:33:50;100351.13;;;23.65;53.45
74268;BME280;62638;51.362;12.472;2022-08-03T06:36:15;100342.41;;;23.92;51.66
74268;BME280;62638;51.362;12.472;2022-08-03T06:38:41;100347.25;;;23.90;51.82
74268;BME280;62638;51.362;12.472;2022-08-03T06:41:06;100344.91;;;23.94;52.54
74268;BME280;62638;51.362;12.472;2022-08-03T06:43:31;100354.13;;;23.81;51.55
74268;BME280;62638;51.362;12.472;2022-08-03T06:46:01;100355.03;;;23.93;51.28
74268;BME280;62638;51.362;12.472;2022-08-03T06:48:27;100361.56;;;24.29;53.91
74268;BME280;62638;51.362;12.472;2022-08-03T06:50:52;100360.56;;;24.71;51.82
74268;BME280;62638;51.362;12.472;2022-08-03T06:53:17;100348.00;;;24.94;49.66
74268;BME280;62638;51.362;12.472;2022-08-03T06:55:43;100361.84;;;24.69;48.48
74268;BME280;62638;51.362;12.472;2022-08-03T06:58:08;100356.41;;;24.80;48.67
74268;BME280;62638;51.362;12.472;2022-08-03T07:00:33;100354.44;;;24.88;48.86
74268;BME280;62638;51.362;12.472;2022-08-03T07:02:58;100361.59;;;25.00;46.84
74268;BME280;62638;51.362;12.472;2022-08-03T07:05:24;100353.84;;;24.97;46.99
74268;BME280;62638;51.362;12.472;2022-08-03T07:07:50;100349.69;;;25.06;46.76
74268;BME280;62638;51.362;12.472;2022-08-03T07:10:18;100358.41;;;25.15;46.91
74268;BME280;62638;51.362;12.472;2022-08-03T07:12:43;100362.13;;;25.44;45.63
74268;BME280;62638;51.362;12.472;2022-08-03T07:15:09;100357.97;;;25.41;46.45
74268;BME280;62638;51.362;12.472;2022-08-03T07:17:35;100360.94;;;25.28;45.71
74268;BME280;62638;51.362;12.472;2022-08-03T07:20:03;100356.75;;;25.25;46.72
74268;BME280;62638;51.362;12.472;2022-08-03T07:22:28;100356.06;;;25.65;44.67
74268;BME280;62638;51.362;12.472;2022-08-03T07:24:54;100353.53;;;25.87;44.43
74268;BME280;62638;51.362;12.472;2022-08-03T07:27:19;100352.81;;;25.91;44.44
74268;BME280;62638;51.362;12.472;2022-08-03T07:29:44;100357.59;;;25.84;45.02
74268;BME280;62638;51.362;12.472;2022-08-03T07:32:09;100354.50;;;25.92;44.83
74268;BME280;62638;51.362;12.472;2022-08-03T07:34:35;100357.19;;;26.04;44.37
74268;BME280;62638;51.362;12.472;2022-08-03T07:37:00;100356.25;;;26.10;43.66
74268;BME280;62638;51.362;12.472;2022-08-03T07:39:25;100359.09;;;26.27;42.90
74268;BME280;62638;51.362;12.472;2022-08-03T07:41:51;100352.19;;;26.52;43.88
74268;BME280;62638;51.362;12.472;2022-08-03T07:44:17;100351.38;;;26.69;42.56
74268;BME280;62638;51.362;12.472;2022-08-03T07:46:43;100348.00;;;26.50;42.73
74268;BME280;62638;51.362;12.472;2022-08-03T07:49:08;100359.31;;;26.82;43.79
74268;BME280;62638;51.362;12.472;2022-08-03T07:51:33;100352.47;;;27.13;42.48
74268;BME280;62638;51.362;12.472;2022-08-03T07:53:59;100358.63;;;27.20;41.17
74268;BME280;62638;51.362;12.472;2022-08-03T07:56:25;100355.09;;;27.41;43.95
74268;BME280;62638;51.362;12.472;2022-08-03T07:58:51;100346.94;;;27.46;40.35
74268;BME280;62638;51.362;12.472;2022-08-03T08:01:16;100349.50;;;27.36;40.99
74268;BME280;62638;51.362;12.472;2022-08-03T08:03:46;100344.72;;;27.81;41.62
74268;BME280;62638;51.362;12.472;2022-08-03T08:06:11;100353.06;;;27.86;39.99
74268;BME280;62638;51.362;12.472;2022-08-03T08:08:37;100338.06;;;27.77;39.46
74268;BME280;62638;51.362;12.472;2022-08-03T08:11:03;100335.13;;;28.06;38.57
74268;BME280;62638;51.362;12.472;2022-08-03T08:13:28;100346.13;;;28.49;39.24
74268;BME280;62638;51.362;12.472;2022-08-03T08:15:53;100345.88;;;28.72;41.03
74268;BME280;62638;51.362;12.472;2022-08-03T08:18:19;100340.59;;;28.98;39.25
74268;BME280;62638;51.362;12.472;2022-08-03T08:20:44;100345.28;;;28.70;37.08
74268;BME280;62638;51.362;12.472;2022-08-03T08:23:09;100346.28;;;28.86;38.16
74268;BME280;62638;51.362;12.472;2022-08-03T08:25:35;100345.06;;;29.09;36.38
74268;BME280;62638;51.362;12.472;2022-08-03T08:28:00;100343.44;;;29.08;38.51
74268;BME280;62638;51.362;12.472;2022-08-03T08:30:27;100338.81;;;29.18;35.92
74268;BME280;62638;51.362;12.472;2022-08-03T08:32:52;100347.09;;;28.86;36.08
74268;BME280;62638;51.362;12.472;2022-08-03T08:35:18;100335.44;;;29.38;37.11
74268;BME280;62638;51.362;12.472;2022-08-03T08:37:44;100339.78;;;29.29;36.19
74268;BME280;62638;51.362;12.472;2022-08-03T08:40:10;100333.16;;;29.72;37.62
74268;BME280;62638;51.362;12.472;2022-08-03T08:42:37;100337.56;;;29.31;34.70
74268;BME280;62638;51.362;12.472;2022-08-03T08:45:04;100338.31;;;29.58;38.20
74268;BME280;62638;51.362;12.472;2022-08-03T08:47:31;100330.25;;;29.99;35.56
74268;BME280;62638;51.362;12.472;2022-08-03T08:49:58;100339.84;;;29.81;32.67
74268;BME280;62638;51.362;12.472;2022-08-03T08:52:26;100346.88;;;29.25;34.55
74268;BME280;62638;51.362;12.472;2022-08-03T08:55:00;100338.31;;;29.58;34.75
74268;BME280;62638;51.362;12.472;2022-08-03T08:57:29;100327.66;;;29.82;33.76
74268;BME280;62638;51.362;12.472;2022-08-03T08:59:55;100335.31;;;29.65;33.53
74268;BME280;62638;51.362;12.472;2022-08-03T09:02:25;100329.44;;;29.98;33.76
74268;BME280;62638;51.362;12.472;2022-08-03T09:04:53;100329.31;;;30.40;33.78
74268;BME280;62638;51.362;12.472;2022-08-03T09:07:19;100323.94;;;29.98;33.19
74268;BME280;62638;51.362;12.472;2022-08-03T09:09:44;100320.34;;;30.08;32.03
74268;BME280;62638;51.362;12.472;2022-08-03T09:12:09;100329.31;;;30.40;32.71
74268;BME280;62638;51.362;12.472;2022-08-03T09:14:34;100319.41;;;30.49;32.06
74268;BME280;62638;51.362;12.472;2022-08-03T09:17:01;100319.25;;;31.06;30.66
74268;BME280;62638;51.362;12.472;2022-08-03T09:19:28;100332.97;;;30.46;32.04
74268;BME280;62638;51.362;12.472;2022-08-03T09:24:32;100326.09;;;31.70;32.24
74268;BME280;62638;51.362;12.472;2022-08-03T09:26:57;100319.66;;;31.84;28.86
74268;BME280;62638;51.362;12.472;2022-08-03T09:29:22;100323.03;;;30.65;30.89
74268;BME280;62638;51.362;12.472;2022-08-03T09:31:48;100319.47;;;31.25;30.40
74268;BME280;62638;51.362;12.472;2022-08-03T09:34:14;100320.56;;;31.49;29.86
74268;BME280;62638;51.362;12.472;2022-08-03T09:41:44;100320.31;;;30.80;30.94
74268;BME280;62638;51.362;12.472;2022-08-03T09:44:10;100319.47;;;31.30;29.35
74268;BME280;62638;51.362;12.472;2022-08-03T09:46:55;100314.75;;;30.75;30.35
74268;BME280;62638;51.362;12.472;2022-08-03T09:49:21;100316.31;;;30.36;30.25
74268;BME280;62638;51.362;12.472;2022-08-03T09:51:46;100314.84;;;30.03;30.30
74268;BME280;62638;51.362;12.472;2022-08-03T09:54:12;100307.56;;;30.94;31.96
74268;BME280;62638;51.362;12.472;2022-08-03T09:59:08;100300.09;;;31.35;30.28
74268;BME280;62638;51.362;12.472;2022-08-03T10:01:34;100299.97;;;31.91;29.14
74268;BME280;62638;51.362;12.472;2022-08-03T10:04:00;100299.63;;;32.13;29.79
74268;BME280;62638;51.362;12.472;2022-08-03T10:06:25;100296.75;;;31.53;28.71
74268;BME280;62638;51.362;12.472;2022-08-03T10:09:11;100297.25;;;32.40;28.41
74268;BME280;62638;51.362;12.472;2022-08-03T10:11:38;100293.16;;;32.71;27.55
74268;BME280;62638;51.362;12.472;2022-08-03T10:14:05;100298.72;;;32.71;27.07
74268;BME280;62638;51.362;12.472;2022-08-03T10:16:38;100292.97;;;32.14;28.70
74268;BME280;62638;51.362;12.472;2022-08-03T10:19:06;100293.63;;;32.83;26.61
74268;BME280;62638;51.362;12.472;2022-08-03T10:21:34;100287.31;;;33.07;27.67
74268;BME280;62638;51.362;12.472;2022-08-03T10:24:05;100287.19;;;33.51;27.16
74268;BME280;62638;51.362;12.472;2022-08-03T10:26:35;100288.56;;;32.57;26.73
74268;BME280;62638;51.362;12.472;2022-08-03T10:29:04;100280.28;;;32.47;27.37
74268;BME280;62638;51.362;12.472;2022-08-03T10:31:35;100287.03;;;32.35;27.89
74268;BME280;62638;51.362;12.472;2022-08-03T10:34:04;100285.94;;;32.31;26.38
74268;BME280;62638;51.362;12.472;2022-08-03T10:36:32;100275.81;;;33.23;25.32
74268;BME280;62638;51.362;12.472;2022-08-03T10:39:00;100274.13;;;32.94;26.51
74268;BME280;62638;51.362;12.472;2022-08-03T10:41:31;100271.53;;;32.29;28.07
74268;BME280;62638;51.362;12.472;2022-08-03T10:44:12;100267.66;;;33.32;26.72
74268;BME280;62638;51.362;12.472;2022-08-03T10:46:40;100272.66;;;33.35;25.82
74268;BME280;62638;51.362;12.472;2022-08-03T10:49:06;100265.44;;;33.58;25.34
74268;BME280;62638;51.362;12.472;2022-08-03T10:51:34;100265.09;;;33.88;24.40
74268;BME280;62638;51.362;12.472;2022-08-03T10:53:59;100266.31;;;33.01;27.25
74268;BME280;62638;51.362;12.472;2022-08-03T10:59:18;100260.69;;;31.79;27.10
74268;BME280;62638;51.362;12.472;2022-08-03T11:01:51;100258.25;;;32.26;27.81
74268;BME280;62638;51.362;12.472;2022-08-03T11:04:20;100268.53;;;32.65;27.31
74268;BME280;62638;51.362;12.472;2022-08-03T11:09:44;100263.72;;;33.09;25.24
74268;BME280;62638;51.362;12.472;2022-08-03T11:12:31;100255.47;;;32.70;26.09
74268;BME280;62638;51.362;12.472;2022-08-03T11:15:07;100252.91;;;32.35;25.47
74268;BME280;62638;51.362;12.472;2022-08-03T11:17:33;100266.19;;;32.43;25.98
74268;BME280;62638;51.362;12.472;2022-08-03T11:19:59;100260.22;;;32.65;25.46
74268;BME280;62638;51.362;12.472;2022-08-03T11:22:25;100250.81;;;33.23;23.15
74268;BME280;62638;51.362;12.472;2022-08-03T11:25:11;100254.22;;;32.48;23.56
74268;BME280;62638;51.362;12.472;2022-08-03T11:27:38;100249.78;;;32.47;25.56
74268;BME280;62638;51.362;12.472;2022-08-03T11:35:28;100247.94;;;33.34;23.50
74268;BME280;62638;51.362;12.472;2022-08-03T11:42:57;100245.72;;;33.02;23.49
74268;BME280;62638;51.362;12.472;2022-08-03T11:45:22;100247.19;;;32.94;24.77
74268;BME280;62638;51.362;12.472;2022-08-03T11:47:48;100239.91;;;33.03;23.81
74268;BME280;62638;51.362;12.472;2022-08-03T11:50:18;100244.47;;;33.70;21.95
74268;BME280;62638;51.362;12.472;2022-08-03T11:52:44;100248.53;;;33.31;23.79
74268;BME280;62638;51.362;12.472;2022-08-03T11:55:11;100231.34;;;33.76;22.94
74268;BME280;62638;51.362;12.472;2022-08-03T11:57:36;100236.69;;;34.34;21.87
74268;BME280;62638;51.362;12.472;2022-08-03T12:03:08;100232.16;;;33.53;21.43
74268;BME280;62638;51.362;12.472;2022-08-03T12:05:44;100235.09;;;34.28;22.70
74268;BME280;62638;51.362;12.472;2022-08-03T12:08:11;100231.19;;;33.67;20.83
74268;BME280;62638;51.362;12.472;2022-08-03T12:10:39;100229.53;;;33.66;20.46
74268;BME280;62638;51.362;12.472;2022-08-03T12:13:05;100227.44;;;33.29;20.65
74268;BME280;62638;51.362;12.472;2022-08-03T12:15:33;100231.88;;;33.54;19.52
74268;BME280;62638;51.362;12.472;2022-08-03T12:18:00;100228.81;;;33.56;19.22
74268;BME280;62638;51.362;12.472;2022-08-03T12:20:28;100226.56;;;33.82;18.35
74268;BME280;62638;51.362;12.472;2022-08-03T12:22:53;100215.56;;;32.61;19.05
74268;BME280;62638;51.362;12.472;2022-08-03T12:25:24;100219.34;;;32.75;21.34
74268;BME280;62638;51.362;12.472;2022-08-03T12:27:51;100210.81;;;33.48;22.44
74268;BME280;62638;51.362;12.472;2022-08-03T12:30:17;100211.09;;;33.52;21.26
74268;BME280;62638;51.362;12.472;2022-08-03T12:32:43;100199.69;;;33.29;22.32
74268;BME280;62638;51.362;12.472;2022-08-03T12:35:09;100205.50;;;33.76;22.15
74268;BME280;62638;51.362;12.472;2022-08-03T12:37:35;100198.81;;;33.53;21.95
74268;BME280;62638;51.362;12.472;2022-08-03T12:40:02;100201.91;;;33.51;22.52
74268;BME280;62638;51.362;12.472;2022-08-03T12:42:31;100196.34;;;33.27;21.65
74268;BME280;62638;51.362;12.472;2022-08-03T12:44:56;100208.16;;;34.04;21.13
74268;BME280;62638;51.362;12.472;2022-08-03T12:47:21;100194.44;;;33.94;19.93
74268;BME280;62638;51.362;12.472;2022-08-03T12:49:48;100194.03;;;33.82;21.08
74268;BME280;62638;51.362;12.472;2022-08-03T12:52:15;100192.84;;;33.88;19.57
74268;BME280;62638;51.362;12.472;2022-08-03T12:54:41;100182.84;;;34.06;19.13
74268;BME280;62638;51.362;12.472;2022-08-03T12:57:10;100184.34;;;34.54;19.13
74268;BME280;62638;51.362;12.472;2022-08-03T12:59:40;100180.47;;;34.18;20.68
74268;BME280;62638;51.362;12.472;2022-08-03T13:02:30;100180.44;;;33.81;19.40
74268;BME280;62638;51.362;12.472;2022-08-03T13:04:56;100187.97;;;33.99;22.26
74268;BME280;62638;51.362;12.472;2022-08-03T13:07:21;100174.97;;;33.28;20.05
74268;BME280;62638;51.362;12.472;2022-08-03T13:09:50;100178.34;;;33.25;20.97
74268;BME280;62638;51.362;12.472;2022-08-03T13:12:27;100170.97;;;33.10;20.98
74268;BME280;62638;51.362;12.472;2022-08-03T13:14:59;100179.69;;;33.94;21.28
74268;BME280;62638;51.362;12.472;2022-08-03T13:17:25;100171.66;;;33.92;20.30
74268;BME280;62638;51.362;12.472;2022-08-03T13:19:51;100163.22;;;34.35;19.82